createdAt,value
2022-12-12T00:01:39.530Z,99849.06
2022-12-12T00:04:06.957Z,99853.38
2022-12-12T00:06:34.363Z,99848.22
2022-12-12T00:09:01.894Z,99854.34
2022-12-12T00:11:29.835Z,99852.66
2022-12-12T00:13:57.732Z,99847.38
2022-12-12T00:16:25.792Z,99864.78
2022-12-12T00:18:54.278Z,99863.94
2022-12-12T00:21:28.811Z,99877.06
2022-12-12T00:23:57.418Z,99864.94
2022-12-12T00:26:26.217Z,99865.84
2022-12-12T00:28:54.161Z,99868.47
2022-12-12T00:31:22.013Z,99857.13
2022-12-12T00:33:50.383Z,99883.38
2022-12-12T00:36:19.835Z,99875.44
2022-12-12T00:38:48.510Z,99872.00
2022-12-12T00:41:16.417Z,99870.28
2022-12-12T00:43:44.036Z,99856.31
2022-12-12T00:46:17.404Z,99863.34
2022-12-12T00:48:45.147Z,99875.56
2022-12-12T00:51:17.633Z,99872.94
2022-12-12T00:53:45.235Z,99884.34
2022-12-12T00:56:15.671Z,99879.97
2022-12-12T00:58:43.175Z,99867.78
2022-12-12T01:01:13.725Z,99885.19
2022-12-12T01:03:42.596Z,99885.25
2022-12-12T01:06:11.098Z,99881.75
2022-12-12T01:08:39.736Z,99901.00
2022-12-12T01:11:10.134Z,99885.25
2022-12-12T01:13:38.226Z,99892.22
2022-12-12T01:16:07.438Z,99896.59
2022-12-12T01:18:35.643Z,99903.63
2022-12-12T01:21:03.748Z,99906.25
2022-12-12T01:23:31.177Z,99916.72
2022-12-12T01:26:03.727Z,99911.50
2022-12-12T01:28:31.237Z,99913.19
2022-12-12T01:30:58.650Z,99907.97
2022-12-12T01:33:26.603Z,99930.69
2022-12-12T01:35:54.096Z,99933.34
2022-12-12T01:38:21.634Z,99929.84
2022-12-12T01:40:49.004Z,99946.47
2022-12-12T01:43:18.200Z,99954.34
2022-12-12T01:45:57.535Z,99951.75
2022-12-12T01:48:33.884Z,99953.50
2022-12-12T01:51:04.680Z,99941.22
2022-12-12T01:53:33.669Z,99955.25
2022-12-12T01:56:04.656Z,99963.97
2022-12-12T01:58:34.026Z,99960.50
2022-12-12T02:01:02.284Z,99971.00
2022-12-12T02:03:29.787Z,99963.09
2022-12-12T02:06:02.674Z,99958.75
2022-12-12T02:08:31.116Z,99970.97
2022-12-12T02:10:58.839Z,99975.34
2022-12-12T02:13:30.680Z,99958.75
2022-12-12T02:16:04.125Z,99947.41
2022-12-12T02:18:48.262Z,99951.75
2022-12-12T02:21:36.263Z,99953.50
2022-12-12T02:24:32.968Z,99965.72
2022-12-12T02:27:14.805Z,99961.38
2022-12-12T02:30:03.230Z,99959.59
2022-12-12T02:32:50.476Z,99952.63
2022-12-12T02:35:37.910Z,99974.47
2022-12-12T02:38:26.329Z,99964.88
2022-12-12T02:41:05.690Z,99962.25
2022-12-12T02:43:59.115Z,99966.59
2022-12-12T02:46:33.166Z,99950.88
2022-12-12T02:49:05.990Z,99940.38
2022-12-12T02:51:35.121Z,99958.72
2022-12-12T02:54:05.403Z,99957.84
2022-12-12T02:56:47.751Z,99956.13
2022-12-12T02:59:28.309Z,99956.97
2022-12-12T03:02:26.713Z,99960.47
2022-12-12T03:05:57.615Z,99962.22
2022-12-12T03:08:34.006Z,99977.09
2022-12-12T03:11:12.591Z,99968.34
2022-12-12T03:13:51.984Z,99967.50
2022-12-12T03:16:39.497Z,99963.09
2022-12-12T03:19:21.056Z,99969.22
2022-12-12T03:21:53.732Z,99974.44
2022-12-12T03:24:30.195Z,99964.81
2022-12-12T03:27:05.188Z,99978.78
2022-12-12T03:29:38.498Z,99993.63
2022-12-12T03:32:14.363Z,99967.44
2022-12-12T03:34:50.390Z,99987.47
2022-12-12T03:37:26.011Z,99990.94
2022-12-12T03:39:59.292Z,99989.16
2022-12-12T03:42:31.763Z,99999.53
2022-12-12T03:45:05.339Z,99998.72
2022-12-12T03:47:39.770Z,99990.75
2022-12-12T03:50:24.601Z,100003.03
2022-12-12T03:52:55.044Z,99996.94
2022-12-12T03:55:31.503Z,100017.00
2022-12-12T03:58:04.285Z,100011.03
2022-12-12T04:00:37.375Z,100009.25
2022-12-12T04:03:36.793Z,100003.78
2022-12-12T04:06:31.848Z,100017.78
2022-12-12T04:09:21.966Z,100017.78
2022-12-12T04:12:25.130Z,100018.66
2022-12-12T04:15:03.809Z,100017.00
2022-12-12T04:17:42.769Z,100013.53
2022-12-12T04:20:39.312Z,100021.38
2022-12-12T04:23:24.507Z,100017.75
2022-12-12T04:26:38.333Z,100017.84
2022-12-12T04:29:26.951Z,100014.34
2022-12-12T04:32:13.021Z,100016.97
2022-12-12T04:34:57.648Z,100026.50
2022-12-12T04:37:29.368Z,100020.28
2022-12-12T04:40:00.819Z,100027.94
2022-12-12T04:42:30.502Z,100033.31
2022-12-12T04:45:05.130Z,100036.84
2022-12-12T04:47:35.266Z,100030.66
2022-12-12T04:50:04.201Z,100029.78
2022-12-12T04:52:34.294Z,100031.34
2022-12-12T04:55:14.092Z,100045.97
2022-12-12T04:57:45.500Z,100057.31
2022-12-12T05:00:14.278Z,100042.59
2022-12-12T05:02:50.056Z,100044.41
2022-12-12T05:05:32.159Z,100053.78
2022-12-12T05:08:21.512Z,100064.19
2022-12-12T05:10:54.204Z,100071.31
2022-12-12T05:13:27.399Z,100073.00
2022-12-12T05:15:57.375Z,100076.56
2022-12-12T05:18:24.716Z,100071.44
2022-12-12T05:20:52.131Z,100082.47
2022-12-12T05:23:19.878Z,100084.81
2022-12-12T05:25:47.276Z,100086.38
2022-12-12T05:28:14.683Z,100090.94
2022-12-12T05:30:42.080Z,100095.31
2022-12-12T05:33:09.371Z,100091.94
2022-12-12T05:35:36.783Z,100095.25
2022-12-12T05:38:04.289Z,100092.91
2022-12-12T05:40:31.616Z,100093.09
2022-12-12T05:42:58.999Z,100106.94
2022-12-12T05:45:26.294Z,100097.16
2022-12-12T05:47:53.662Z,100098.16
2022-12-12T05:50:20.986Z,100100.09
2022-12-12T05:52:48.417Z,100103.34
2022-12-12T05:55:15.940Z,100105.97
2022-12-12T05:57:43.410Z,100110.34
2022-12-12T06:00:11.060Z,100114.72
2022-12-12T06:02:39.245Z,100115.75
2022-12-12T06:05:07.402Z,100123.41
2022-12-12T06:07:34.833Z,100119.91
2022-12-12T06:10:02.509Z,100119.97
2022-12-12T06:12:30.016Z,100108.72
2022-12-12T06:14:57.419Z,100114.84
2022-12-12T06:17:29.695Z,100122.63
2022-12-12T06:20:00.572Z,100129.63
2022-12-12T06:22:28.555Z,100117.28
2022-12-12T06:24:57.420Z,100126.22
2022-12-12T06:27:24.806Z,100129.81
2022-12-12T06:29:52.202Z,100138.56
2022-12-12T06:32:19.686Z,100146.38
2022-12-12T06:34:47.051Z,100133.38
2022-12-12T06:37:17.343Z,100127.94
2022-12-12T06:39:45.180Z,100120.97
2022-12-12T06:42:14.979Z,100137.56
2022-12-12T06:44:42.466Z,100142.75
2022-12-12T06:47:09.995Z,100147.16
2022-12-12T06:49:37.493Z,100148.00
2022-12-12T06:52:05.078Z,100143.59
2022-12-12T06:54:32.665Z,100147.13
2022-12-12T06:57:00.241Z,100135.78
2022-12-12T06:59:29.540Z,100144.28
2022-12-12T07:01:57.539Z,100142.41
2022-12-12T07:04:25.886Z,100157.31
2022-12-12T07:06:53.739Z,100159.13
2022-12-12T07:09:21.110Z,100162.38
2022-12-12T07:11:48.494Z,100159.84
2022-12-12T07:14:15.990Z,100173.09
2022-12-12T07:16:43.492Z,100165.16
2022-12-12T07:19:10.849Z,100167.19
2022-12-12T07:21:38.468Z,100178.63
2022-12-12T07:24:05.969Z,100182.19
2022-12-12T07:26:33.439Z,100164.75
2022-12-12T07:29:03.751Z,100174.38
2022-12-12T07:31:31.558Z,100192.84
2022-12-12T07:33:59.011Z,100189.31
2022-12-12T07:36:26.578Z,100181.50
2022-12-12T07:38:53.891Z,100195.41
2022-12-12T07:41:21.627Z,100185.78
2022-12-12T07:43:51.023Z,100202.34
2022-12-12T07:46:21.789Z,100190.84
2022-12-12T07:48:50.051Z,100206.63
2022-12-12T07:51:18.021Z,100203.38
2022-12-12T07:53:45.555Z,100202.38
2022-12-12T07:56:15.583Z,100216.59
2022-12-12T07:58:42.987Z,100221.84
2022-12-12T08:01:16.587Z,100210.53
2022-12-12T08:03:45.431Z,100234.16
2022-12-12T08:06:14.128Z,100217.56
2022-12-12T08:08:42.997Z,100228.91
2022-12-12T08:11:13.213Z,100239.47
2022-12-12T08:13:41.529Z,100220.16
2022-12-12T08:16:17.405Z,100223.38
2022-12-12T08:18:45.356Z,100235.66
2022-12-12T08:21:15.824Z,100231.34
2022-12-12T08:23:45.713Z,100252.53
2022-12-12T08:26:16.240Z,100244.88
2022-12-12T08:28:45.436Z,100249.22
2022-12-12T08:31:13.747Z,100243.03
2022-12-12T08:33:41.520Z,100242.25
2022-12-12T08:36:17.710Z,100251.91
2022-12-12T08:38:45.630Z,100259.69
2022-12-12T08:41:13.960Z,100256.34
2022-12-12T08:43:42.670Z,100249.50
2022-12-12T08:46:17.520Z,100254.88
2022-12-12T08:48:47.038Z,100246.19
2022-12-12T08:51:15.328Z,100262.88
2022-12-12T08:53:47.626Z,100266.38
2022-12-12T08:56:16.779Z,100269.88
2022-12-12T08:58:44.483Z,100272.56
2022-12-12T09:01:13.495Z,100277.84
2022-12-12T09:03:48.502Z,100291.00
2022-12-12T09:06:16.816Z,100291.03
2022-12-12T09:08:46.379Z,100292.78
2022-12-12T09:11:14.030Z,100298.03
2022-12-12T09:13:41.902Z,100295.34
2022-12-12T09:16:10.729Z,100298.03
2022-12-12T09:18:43.245Z,100297.19
2022-12-12T09:21:15.548Z,100305.09
2022-12-12T09:23:43.229Z,100285.00
2022-12-12T09:26:11.459Z,100304.25
2022-12-12T09:28:39.545Z,100306.00
2022-12-12T09:31:08.400Z,100307.78
2022-12-12T09:33:36.134Z,100302.53
2022-12-12T09:36:05.899Z,100299.06
2022-12-12T09:38:33.404Z,100313.13
2022-12-12T09:41:12.204Z,100302.56
2022-12-12T09:43:48.180Z,100302.56
2022-12-12T09:46:47.886Z,100297.34
2022-12-12T09:49:19.764Z,100293.84
2022-12-12T09:51:49.905Z,100294.72
2022-12-12T09:54:21.227Z,100285.97
2022-12-12T09:57:13.396Z,100292.97
2022-12-12T09:59:49.184Z,100291.25
2022-12-12T10:02:41.021Z,100289.47
2022-12-12T10:05:17.262Z,100292.13
2022-12-12T10:07:53.982Z,100283.38
2022-12-12T10:10:30.968Z,100288.63
2022-12-12T10:13:01.407Z,100279.84
2022-12-12T10:15:40.251Z,100286.84
2022-12-12T10:18:15.664Z,100277.22
2022-12-12T10:20:51.174Z,100278.97
2022-12-12T10:23:47.771Z,100280.72
2022-12-12T10:26:21.658Z,100284.22
2022-12-12T10:28:57.556Z,100273.72
2022-12-12T10:32:07.418Z,100274.59
2022-12-12T10:34:59.292Z,100264.94
2022-12-12T10:37:47.261Z,100264.97
2022-12-12T10:40:29.228Z,100262.31
2022-12-12T10:43:06.132Z,100260.56
2022-12-12T10:46:30.227Z,100256.16
2022-12-12T10:48:57.965Z,100256.16
2022-12-12T10:51:28.777Z,100258.78
2022-12-12T10:53:56.206Z,100262.28
2022-12-12T10:56:26.541Z,100255.25
2022-12-12T10:58:56.554Z,100256.16
2022-12-12T11:02:08.291Z,100257.03
2022-12-12T11:04:20.784Z,100249.13
2022-12-12T11:06:51.717Z,100249.97
2022-12-12T11:09:27.941Z,100244.72
2022-12-12T11:12:17.711Z,100237.66
2022-12-12T11:14:50.916Z,100246.44
2022-12-12T11:17:25.455Z,100245.56
2022-12-12T11:19:57.074Z,100245.53
2022-12-12T11:22:25.164Z,100242.88
2022-12-12T11:24:53.269Z,100247.22
2022-12-12T11:27:34.380Z,100237.59
2022-12-12T11:30:06.456Z,100233.13
2022-12-12T11:32:44.073Z,100239.28
2022-12-12T11:35:27.921Z,100240.19
2022-12-12T11:38:00.248Z,100235.78
2022-12-12T11:40:30.551Z,100234.84
2022-12-12T11:43:25.173Z,100229.56
2022-12-12T11:46:04.510Z,100223.38
2022-12-12T11:48:54.859Z,100207.44
2022-12-12T11:51:43.381Z,100205.69
2022-12-12T11:54:23.815Z,100202.16
2022-12-12T11:57:03.457Z,100195.97
2022-12-12T11:59:39.857Z,100190.72
2022-12-12T12:02:25.562Z,100197.72
2022-12-12T12:05:30.711Z,100193.28
2022-12-12T12:08:55.477Z,100204.72
2022-12-12T12:11:41.016Z,100200.28
2022-12-12T12:14:33.944Z,100195.81
2022-12-12T12:17:31.019Z,100196.69
2022-12-12T12:20:17.167Z,100190.47
2022-12-12T12:22:50.186Z,100194.78
2022-12-12T12:25:34.098Z,100179.06
2022-12-12T12:28:16.749Z,100181.72
2022-12-12T12:31:00.394Z,100186.13
2022-12-12T12:33:53.965Z,100179.84
2022-12-12T12:36:52.312Z,100179.03
2022-12-12T12:39:53.750Z,100173.66
2022-12-12T12:42:30.001Z,100170.19
2022-12-12T12:45:04.228Z,100165.72
2022-12-12T12:47:49.216Z,100161.38
2022-12-12T12:50:22.201Z,100174.66
2022-12-12T12:53:31.449Z,100174.66
2022-12-12T12:56:07.812Z,100186.09
2022-12-12T12:58:44.391Z,100194.97
2022-12-12T13:01:16.735Z,100193.16
2022-12-12T13:03:54.584Z,100194.09
2022-12-12T13:06:57.440Z,100188.00
2022-12-12T13:09:34.221Z,100211.88
2022-12-12T13:12:24.511Z,100193.41
2022-12-12T13:14:57.831Z,100199.63
2022-12-12T13:17:46.302Z,100198.84
2022-12-12T13:20:17.586Z,100209.34
2022-12-12T13:23:08.164Z,100211.91
2022-12-12T13:25:46.516Z,100191.88
2022-12-12T13:28:23.247Z,100190.16
2022-12-12T13:31:14.115Z,100205.94
2022-12-12T13:33:47.804Z,100187.56
2022-12-12T13:36:26.134Z,100192.78
2022-12-12T13:38:58.050Z,100201.56
2022-12-12T13:41:25.695Z,100195.44
2022-12-12T13:43:58.423Z,100183.19
2022-12-12T13:46:28.885Z,100202.44
2022-12-12T13:49:02.416Z,100185.75
2022-12-12T13:51:31.009Z,100209.53
2022-12-12T13:54:12.704Z,100200.75
2022-12-12T13:56:46.013Z,100191.22
2022-12-12T13:59:22.375Z,100202.56
2022-12-12T14:02:02.587Z,100202.63
2022-12-12T14:04:33.718Z,100203.53
2022-12-12T14:07:14.130Z,100210.50
2022-12-12T14:09:49.808Z,100212.22
2022-12-12T14:12:20.439Z,100219.19
2022-12-12T14:15:03.080Z,100232.38
2022-12-12T14:17:40.088Z,100229.75
2022-12-12T14:20:41.732Z,100228.03
2022-12-12T14:23:33.577Z,100219.28
2022-12-12T14:26:01.684Z,100220.19
2022-12-12T14:28:33.765Z,100220.19
2022-12-12T14:31:33.505Z,100215.84
2022-12-12T14:34:16.838Z,100220.19
2022-12-12T14:37:02.661Z,100229.88
2022-12-12T14:39:53.165Z,100224.59
2022-12-12T14:43:19.208Z,100222.00
2022-12-12T14:45:53.633Z,100240.41
2022-12-12T14:48:27.111Z,100229.88
2022-12-12T14:51:02.088Z,100224.63
2022-12-12T14:53:38.485Z,100236.88
2022-12-12T14:56:21.718Z,100241.22
2022-12-12T14:58:55.204Z,100230.72
2022-12-12T15:01:35.114Z,100239.53
2022-12-12T15:04:08.940Z,100249.13
2022-12-12T15:06:44.117Z,100243.88
2022-12-12T15:09:20.097Z,100253.53
2022-12-12T15:11:48.676Z,100249.13
2022-12-12T15:14:20.283Z,100261.41
2022-12-12T15:16:50.894Z,100258.81
2022-12-12T15:19:26.436Z,100249.16
2022-12-12T15:21:54.400Z,100254.44
2022-12-12T15:24:37.249Z,100267.56
2022-12-12T15:27:06.025Z,100270.22
2022-12-12T15:29:35.581Z,100248.31
2022-12-12T15:32:07.398Z,100250.94
2022-12-12T15:34:39.697Z,100258.81
2022-12-12T15:37:23.883Z,100261.44
2022-12-12T15:40:17.656Z,100255.31
2022-12-12T15:42:49.334Z,100255.34
2022-12-12T15:45:30.616Z,100257.94
2022-12-12T15:47:58.641Z,100273.72
2022-12-12T15:50:30.741Z,100282.47
2022-12-12T15:53:01.861Z,100271.94
2022-12-12T15:55:30.241Z,100274.59
2022-12-12T15:58:00.136Z,100282.47
2022-12-12T16:00:38.852Z,100286.88
2022-12-12T16:03:06.270Z,100293.88
2022-12-12T16:05:40.051Z,100290.38
2022-12-12T16:08:36.023Z,100289.50
2022-12-12T16:11:07.303Z,100289.50
2022-12-12T16:13:39.887Z,100294.75
2022-12-12T16:16:34.771Z,100292.97
2022-12-12T16:19:03.039Z,100299.09
2022-12-12T16:21:31.252Z,100295.63
2022-12-12T16:24:19.867Z,100281.59
2022-12-12T16:26:47.428Z,100294.72
2022-12-12T16:29:14.802Z,100300.00
2022-12-12T16:31:44.213Z,100278.09
2022-12-12T16:34:11.657Z,100287.72
2022-12-12T16:36:42.228Z,100285.09
2022-12-12T16:39:13.877Z,100296.47
2022-12-12T16:41:41.677Z,100300.84
2022-12-12T16:44:09.092Z,100291.22
2022-12-12T16:46:36.498Z,100301.75
2022-12-12T16:49:05.119Z,100311.41
2022-12-12T16:51:35.268Z,100296.50
2022-12-12T16:54:02.716Z,100302.63
2022-12-12T16:56:30.169Z,100318.38
2022-12-12T16:58:57.615Z,100314.88
2022-12-12T17:01:25.152Z,100317.50
2022-12-12T17:03:52.677Z,100318.41
2022-12-12T17:06:20.078Z,100320.13
2022-12-12T17:08:47.416Z,100323.66
2022-12-12T17:11:15.125Z,100325.41
2022-12-12T17:13:48.145Z,100334.16
2022-12-12T17:16:15.769Z,100338.56
2022-12-12T17:18:43.220Z,100331.53
2022-12-12T17:21:11.020Z,100318.38
2022-12-12T17:23:39.865Z,100307.00
2022-12-12T17:26:07.423Z,100315.78
2022-12-12T17:28:35.327Z,100309.63
2022-12-12T17:31:08.007Z,100324.50
2022-12-12T17:33:35.823Z,100327.16
2022-12-12T17:36:05.961Z,100323.66
2022-12-12T17:38:34.240Z,100318.38
2022-12-12T17:41:10.800Z,100324.50
2022-12-12T17:43:38.946Z,100314.00
2022-12-12T17:46:14.193Z,100330.66
2022-12-12T17:48:47.405Z,100328.03
2022-12-12T17:51:21.172Z,100336.78
2022-12-12T17:53:51.109Z,100333.28
2022-12-12T17:56:21.342Z,100355.19
2022-12-12T17:58:49.652Z,100328.03
2022-12-12T18:01:26.643Z,100334.19
2022-12-12T18:03:54.350Z,100323.66
2022-12-12T18:06:23.183Z,100339.44
2022-12-12T18:08:53.465Z,100338.53
2022-12-12T18:11:24.785Z,100346.41
2022-12-12T18:13:54.871Z,100362.19
2022-12-12T18:16:23.764Z,100335.00
2022-12-12T18:18:52.302Z,100344.66
2022-12-12T18:21:59.142Z,100326.25
2022-12-12T18:24:10.412Z,100345.53
2022-12-12T18:26:37.899Z,100364.81
2022-12-12T18:29:07.178Z,100350.78
2022-12-12T18:31:35.489Z,100354.31
2022-12-12T18:34:03.846Z,100350.78
2022-12-12T18:36:32.126Z,100349.91
2022-12-12T18:39:01.994Z,100349.03
2022-12-12T18:41:31.631Z,100356.03
2022-12-12T18:44:05.945Z,100354.25
2022-12-12T18:46:40.322Z,100348.13
2022-12-12T18:49:13.797Z,100340.13
2022-12-12T18:51:41.838Z,100356.75
2022-12-12T18:54:15.465Z,100353.34
2022-12-12T18:56:45.182Z,100348.94
2022-12-12T18:59:13.322Z,100343.72
2022-12-12T19:01:41.167Z,100363.06
2022-12-12T19:04:13.137Z,100339.38
2022-12-12T19:06:42.388Z,100349.03
2022-12-12T19:09:17.862Z,100342.88
2022-12-12T19:11:47.294Z,100340.19
2022-12-12T19:14:16.261Z,100333.19
2022-12-12T19:16:45.088Z,100324.44
2022-12-12T19:19:13.153Z,100347.25
2022-12-12T19:21:41.896Z,100349.00
2022-12-12T19:24:12.218Z,100363.06
2022-12-12T19:26:44.383Z,100343.75
2022-12-12T19:29:18.160Z,100343.75
2022-12-12T19:31:45.963Z,100354.25
2022-12-12T19:34:16.493Z,100358.59
2022-12-12T19:36:44.691Z,100348.06
2022-12-12T19:39:13.078Z,100364.72
2022-12-12T19:41:41.701Z,100364.72
2022-12-12T19:44:12.932Z,100363.81
2022-12-12T19:46:42.710Z,100362.94
2022-12-12T19:49:12.411Z,100346.31
2022-12-12T19:51:40.509Z,100367.34
2022-12-12T19:54:17.891Z,100362.97
2022-12-12T19:56:46.541Z,100349.75
2022-12-12T19:59:16.606Z,100349.75
2022-12-12T20:01:44.469Z,100356.75
2022-12-12T20:04:21.079Z,100355.81
2022-12-12T20:06:49.953Z,100366.25
2022-12-12T20:09:27.489Z,100351.25
2022-12-12T20:12:00.652Z,100359.97
2022-12-12T20:14:31.188Z,100366.25
2022-12-12T20:16:59.319Z,100362.75
2022-12-12T20:19:27.884Z,100374.88
2022-12-12T20:22:01.733Z,100362.53
2022-12-12T20:24:32.307Z,100356.41
2022-12-12T20:27:00.281Z,100348.56
2022-12-12T20:29:27.929Z,100356.41
2022-12-12T20:31:55.685Z,100346.00
2022-12-12T20:34:24.870Z,100364.22
2022-12-12T20:36:55.073Z,100338.91
2022-12-12T20:39:24.690Z,100366.84
2022-12-12T20:41:53.700Z,100345.84
2022-12-12T20:44:23.352Z,100344.22
2022-12-12T20:46:51.424Z,100348.59
2022-12-12T20:49:22.371Z,100345.97
2022-12-12T20:51:58.196Z,100361.66
2022-12-12T20:54:28.340Z,100379.22
2022-12-12T20:56:57.067Z,100373.00
2022-12-12T20:59:24.991Z,100367.91
2022-12-12T21:01:52.699Z,100369.44
2022-12-12T21:04:20.671Z,100385.31
2022-12-12T21:06:49.488Z,100366.94
2022-12-12T21:09:23.785Z,100385.13
2022-12-12T21:11:56.867Z,100373.75
2022-12-12T21:14:26.253Z,100382.47
2022-12-12T21:16:54.091Z,100378.19
2022-12-12T21:19:23.335Z,100378.25
2022-12-12T21:21:51.682Z,100387.81
2022-12-12T21:24:20.770Z,100386.84
2022-12-12T21:26:48.670Z,100386.94
2022-12-12T21:29:16.502Z,100385.09
2022-12-12T21:31:51.141Z,100382.53
2022-12-12T21:34:23.520Z,100388.69
2022-12-12T21:36:55.028Z,100380.88
2022-12-12T21:39:25.052Z,100382.63
2022-12-12T21:41:53.186Z,100377.16
2022-12-12T21:44:21.053Z,100374.69
2022-12-12T21:46:48.885Z,100369.38
2022-12-12T21:49:19.803Z,100389.63
2022-12-12T21:51:48.117Z,100394.72
2022-12-12T21:54:15.649Z,100388.59
2022-12-12T21:56:43.439Z,100387.66
2022-12-12T21:59:12.711Z,100376.16
2022-12-12T22:01:41.204Z,100389.41
2022-12-12T22:04:10.568Z,100376.16
2022-12-12T22:06:38.417Z,100381.09
2022-12-12T22:09:09.788Z,100374.88
2022-12-12T22:11:41.918Z,100376.84
2022-12-12T22:14:18.931Z,100386.38
2022-12-12T22:16:46.309Z,100386.25
2022-12-12T22:19:15.785Z,100377.59
2022-12-12T22:21:47.473Z,100386.03
2022-12-12T22:24:18.301Z,100387.75
2022-12-12T22:26:48.236Z,100381.59
2022-12-12T22:29:20.103Z,100375.44
2022-12-12T22:31:50.072Z,100386.34
2022-12-12T22:34:21.160Z,100383.66
2022-12-12T22:36:49.305Z,100394.19
2022-12-12T22:39:27.843Z,100383.78
2022-12-12T22:41:56.356Z,100390.69
2022-12-12T22:44:25.273Z,100389.66
2022-12-12T22:46:55.204Z,100395.19
2022-12-12T22:49:25.852Z,100384.69
2022-12-12T22:51:56.272Z,100383.88
2022-12-12T22:54:24.869Z,100385.66
2022-12-12T22:56:52.567Z,100392.72
2022-12-12T22:59:20.001Z,100400.66
2022-12-12T23:01:47.413Z,100400.69
2022-12-12T23:04:15.356Z,100407.72
2022-12-12T23:06:43.236Z,100405.13
2022-12-12T23:09:15.733Z,100403.44
2022-12-12T23:11:44.467Z,100391.22
2022-12-12T23:14:19.685Z,100400.84
2022-12-12T23:16:47.644Z,100397.31
2022-12-12T23:19:18.417Z,100393.75
2022-12-12T23:21:46.144Z,100397.16
2022-12-12T23:24:14.088Z,100404.19
2022-12-12T23:26:41.742Z,100389.25
2022-12-12T23:29:12.978Z,100391.03
2022-12-12T23:31:40.394Z,100391.94
2022-12-12T23:34:13.513Z,100393.69
2022-12-12T23:36:42.266Z,100384.59
2022-12-12T23:39:11.872Z,100371.59
2022-12-12T23:41:40.185Z,100392.72
2022-12-12T23:44:08.348Z,100368.25
2022-12-12T23:46:36.509Z,100374.31
2022-12-12T23:49:03.908Z,100388.44
2022-12-12T23:51:42.546Z,100390.09
2022-12-12T23:54:12.609Z,100386.47
2022-12-12T23:56:40.594Z,100376.94
2022-12-12T23:59:10.680Z,100373.41
